Tadcaster, United Kingdom
Current Conditions -  °F | °C
As of 9:50 PM on Thursday 27 Nov 2014 (Local Time) from EGXU Reporting Station
Broken Clouds Broken Clouds  
Wind Chill: 45°   Ceiling: 400
Heat Index: 45°   Visibility: 3mi
Dew Point: 45°   Wind: 3mph
Humidity: 100%   Direction: 180°S
Pressure: 29.62"   Gusts: NA
Location:  53.88°N, 1.26°W
Report Text: EGXU 272150Z AUTO 18003KT 5000 // BKN004/// SCT008/// BKN120/// 07/07 Q1003
Loading
Personal Weather Stations






























Interactive Weather Map New forecast layout! Learn more

10-Day Weather Forecast

Advertisements
Track Severe Weather on mobile